createdAt,value
2023-05-05T00:02:23.237Z,100482.81
2023-05-05T00:04:53.304Z,100476.28
2023-05-05T00:07:23.936Z,100479.53
2023-05-05T00:09:52.067Z,100472.97
2023-05-05T00:12:20.410Z,100482.13
2023-05-05T00:14:49.310Z,100482.38
2023-05-05T00:17:19.289Z,100467.06
2023-05-05T00:19:48.829Z,100477.69
2023-05-05T00:22:17.006Z,100482.00
2023-05-05T00:24:45.121Z,100483.13
2023-05-05T00:27:16.776Z,100490.56
2023-05-05T00:29:45.269Z,100484.84
2023-05-05T00:32:13.795Z,100478.97
2023-05-05T00:34:42.085Z,100478.78
2023-05-05T00:37:13.642Z,100473.41
2023-05-05T00:39:41.850Z,100483.88
2023-05-05T00:42:10.067Z,100488.44
2023-05-05T00:44:41.530Z,100483.41
2023-05-05T00:47:11.087Z,100488.06
2023-05-05T00:49:39.904Z,100482.50
2023-05-05T00:52:08.307Z,100486.63
2023-05-05T00:54:38.112Z,100482.34
2023-05-05T00:57:06.411Z,100479.00
2023-05-05T00:59:35.465Z,100469.16
2023-05-05T01:02:07.219Z,100470.06
2023-05-05T01:04:36.386Z,100468.38
2023-05-05T01:07:30.191Z,100476.53
2023-05-05T01:10:19.620Z,100476.22
2023-05-05T01:12:59.858Z,100463.59
2023-05-05T01:15:34.344Z,100463.78
2023-05-05T01:18:16.544Z,100465.09
2023-05-05T01:20:50.886Z,100458.03
2023-05-05T01:23:34.534Z,100436.63
2023-05-05T01:26:22.533Z,100434.69
2023-05-05T01:29:22.861Z,100432.28
2023-05-05T01:31:54.808Z,100427.31
2023-05-05T01:34:27.288Z,100426.00
2023-05-05T01:37:04.613Z,100444.84
2023-05-05T01:39:37.005Z,100447.84
2023-05-05T01:42:13.827Z,100426.97
2023-05-05T01:44:44.570Z,100454.00
2023-05-05T01:47:16.996Z,100453.84
2023-05-05T01:49:48.025Z,100453.75
2023-05-05T01:52:17.119Z,100454.31
2023-05-05T01:54:47.553Z,100469.81
2023-05-05T01:57:16.910Z,100460.47
2023-05-05T01:59:45.254Z,100472.06
2023-05-05T02:02:18.330Z,100475.88
2023-05-05T02:04:47.306Z,100475.78
2023-05-05T02:07:18.294Z,100488.06
2023-05-05T02:09:48.166Z,100483.13
2023-05-05T02:12:17.854Z,100484.31
2023-05-05T02:14:50.096Z,100491.22
2023-05-05T02:17:23.096Z,100493.66
2023-05-05T02:19:53.354Z,100497.72
2023-05-05T02:22:21.955Z,100499.59
2023-05-05T02:24:50.070Z,100499.91
2023-05-05T02:27:23.964Z,100509.28
2023-05-05T02:29:58.061Z,100494.59
2023-05-05T02:32:33.048Z,100505.72
2023-05-05T02:35:10.670Z,100509.59
2023-05-05T02:37:45.791Z,100505.78
2023-05-05T02:40:18.753Z,100514.31
2023-05-05T02:42:50.823Z,100515.28
2023-05-05T02:45:23.450Z,100510.66
2023-05-05T02:47:53.425Z,100513.13
2023-05-05T02:50:23.391Z,100507.91
2023-05-05T02:53:03.004Z,100514.75
2023-05-05T02:55:38.790Z,100512.03
2023-05-05T02:58:10.682Z,100518.38
2023-05-05T03:00:50.845Z,100510.06
2023-05-05T03:03:31.836Z,100511.41
2023-05-05T03:06:07.072Z,100509.22
2023-05-05T03:08:53.889Z,100510.13
2023-05-05T03:11:32.118Z,100508.16
2023-05-05T03:14:06.809Z,100508.31
2023-05-05T03:16:37.095Z,100506.69
2023-05-05T03:19:10.662Z,100518.00
2023-05-05T03:21:41.155Z,100520.22
2023-05-05T03:24:13.966Z,100519.88
2023-05-05T03:26:45.680Z,100514.50
2023-05-05T03:29:15.150Z,100515.28
2023-05-05T03:31:43.497Z,100514.50
2023-05-05T03:34:13.291Z,100518.72
2023-05-05T03:36:46.596Z,100516.16
2023-05-05T03:39:18.704Z,100520.22
2023-05-05T03:41:47.778Z,100518.56
2023-05-05T03:44:17.184Z,100517.56
2023-05-05T03:46:45.706Z,100521.28
2023-05-05T03:49:17.858Z,100520.94
2023-05-05T03:51:48.716Z,100525.34
2023-05-05T03:54:17.843Z,100524.97
2023-05-05T03:56:47.369Z,100525.16
2023-05-05T03:59:15.967Z,100529.06
2023-05-05T04:01:49.517Z,100526.50
2023-05-05T04:04:19.860Z,100537.25
2023-05-05T04:06:50.944Z,100539.84
2023-05-05T04:09:18.974Z,100542.63
2023-05-05T04:11:47.425Z,100540.56
2023-05-05T04:14:15.761Z,100543.34
2023-05-05T04:16:44.400Z,100545.41
2023-05-05T04:19:14.604Z,100548.53
2023-05-05T04:21:44.470Z,100541.81
2023-05-05T04:24:13.041Z,100537.72
2023-05-05T04:26:41.534Z,100536.56
2023-05-05T04:29:09.889Z,100548.41
2023-05-05T04:31:38.742Z,100536.34
2023-05-05T04:34:07.016Z,100542.09
2023-05-05T04:36:35.546Z,100549.69
2023-05-05T04:39:06.986Z,100547.84
2023-05-05T04:41:35.873Z,100553.91
2023-05-05T04:44:04.484Z,100562.97
2023-05-05T04:46:34.818Z,100560.88
2023-05-05T04:49:07.540Z,100570.84
2023-05-05T04:51:35.955Z,100576.94
2023-05-05T04:54:05.703Z,100570.63
2023-05-05T04:56:34.059Z,100572.94
2023-05-05T04:59:02.161Z,100575.66
2023-05-05T05:01:30.395Z,100572.44
2023-05-05T05:03:58.723Z,100571.63
2023-05-05T05:06:27.346Z,100574.69
2023-05-05T05:08:55.556Z,100574.81
2023-05-05T05:11:26.219Z,100574.09
2023-05-05T05:13:55.827Z,100577.31
2023-05-05T05:16:26.263Z,100582.88
2023-05-05T05:19:01.472Z,100584.50
2023-05-05T05:21:31.641Z,100572.88
2023-05-05T05:24:00.062Z,100589.59
2023-05-05T05:26:29.985Z,100592.03
2023-05-05T05:29:00.523Z,100585.53
2023-05-05T05:31:29.280Z,100594.91
2023-05-05T05:33:58.161Z,100596.28
2023-05-05T05:36:27.193Z,100600.00
2023-05-05T05:38:57.408Z,100598.75
2023-05-05T05:41:25.924Z,100600.25
2023-05-05T05:43:57.907Z,100605.94
2023-05-05T05:46:26.617Z,100593.31
2023-05-05T05:48:55.052Z,100603.03
2023-05-05T05:51:23.451Z,100604.78
2023-05-05T05:53:52.352Z,100604.94
2023-05-05T05:56:21.806Z,100602.84
2023-05-05T05:58:51.525Z,100608.50
2023-05-05T06:01:21.682Z,100610.75
2023-05-05T06:03:50.226Z,100618.38
2023-05-05T06:06:18.984Z,100621.31
2023-05-05T06:08:48.046Z,100619.28
2023-05-05T06:11:16.734Z,100619.22
2023-05-05T06:13:46.328Z,100625.31
2023-05-05T06:16:14.551Z,100628.94
2023-05-05T06:18:46.909Z,100618.94
2023-05-05T06:21:15.067Z,100628.78
2023-05-05T06:23:43.465Z,100627.41
2023-05-05T06:26:12.637Z,100624.28
2023-05-05T06:28:41.337Z,100631.44
2023-05-05T06:31:09.893Z,100638.59
2023-05-05T06:33:38.099Z,100634.97
2023-05-05T06:36:11.001Z,100634.44
2023-05-05T06:38:39.234Z,100637.03
2023-05-05T06:41:09.290Z,100637.78
2023-05-05T06:43:37.720Z,100637.91
2023-05-05T06:46:09.213Z,100633.53
2023-05-05T06:48:37.682Z,100632.00
2023-05-05T06:51:07.614Z,100638.19
2023-05-05T06:53:36.127Z,100631.00
2023-05-05T06:56:07.585Z,100623.50
2023-05-05T06:58:35.731Z,100622.94
2023-05-05T07:01:03.946Z,100630.53
2023-05-05T07:03:33.329Z,100632.47
2023-05-05T07:06:01.535Z,100635.91
2023-05-05T07:08:31.375Z,100635.16
2023-05-05T07:11:01.164Z,100629.66
2023-05-05T07:13:29.868Z,100629.66
2023-05-05T07:15:58.232Z,100634.28
2023-05-05T07:18:26.621Z,100641.94
2023-05-05T07:20:55.498Z,100639.81
2023-05-05T07:23:23.854Z,100645.22
2023-05-05T07:25:53.492Z,100640.03
2023-05-05T07:28:23.399Z,100643.34
2023-05-05T07:30:52.002Z,100645.69
2023-05-05T07:33:20.190Z,100637.66
2023-05-05T07:35:48.556Z,100634.09
2023-05-05T07:38:16.867Z,100634.91
2023-05-05T07:40:45.155Z,100639.03
2023-05-05T07:43:14.690Z,100644.03
2023-05-05T07:45:43.000Z,100644.28
2023-05-05T07:48:11.557Z,100638.94
2023-05-05T07:50:39.829Z,100646.91
2023-05-05T07:53:14.438Z,100642.94
2023-05-05T07:55:44.018Z,100648.25
2023-05-05T07:58:12.425Z,100647.91
2023-05-05T08:00:43.884Z,100639.03
2023-05-05T08:03:12.446Z,100645.03
2023-05-05T08:05:40.814Z,100637.25
2023-05-05T08:08:09.169Z,100633.19
2023-05-05T08:10:37.782Z,100640.50
2023-05-05T08:13:06.885Z,100639.00
2023-05-05T08:15:35.096Z,100630.81
2023-05-05T08:18:04.944Z,100636.63
2023-05-05T08:20:34.253Z,100638.00
2023-05-05T08:23:02.905Z,100640.97
2023-05-05T08:25:43.673Z,100634.00
2023-05-05T08:28:12.354Z,100637.75
2023-05-05T08:30:41.432Z,100637.44
2023-05-05T08:33:11.098Z,100634.13
2023-05-05T08:35:39.314Z,100630.53
2023-05-05T08:38:07.710Z,100624.50
2023-05-05T08:40:39.516Z,100632.66
2023-05-05T08:43:08.440Z,100631.00
2023-05-05T08:45:37.879Z,100622.03
2023-05-05T08:48:07.165Z,100617.66
2023-05-05T08:50:40.309Z,100613.47
2023-05-05T08:53:11.665Z,100618.69
2023-05-05T08:55:47.559Z,100620.66
2023-05-05T08:58:17.520Z,100617.50
2023-05-05T09:00:46.852Z,100619.63
2023-05-05T09:03:15.624Z,100616.19
2023-05-05T09:05:45.675Z,100618.72
2023-05-05T09:08:14.529Z,100614.75
2023-05-05T09:10:43.505Z,100619.59
2023-05-05T09:13:11.889Z,100614.75
2023-05-05T09:15:42.067Z,100613.56
2023-05-05T09:18:13.312Z,100623.09
2023-05-05T09:20:42.294Z,100617.94
2023-05-05T09:23:13.190Z,100612.97
2023-05-05T09:25:42.263Z,100615.75
2023-05-05T09:28:11.520Z,100610.22
2023-05-05T09:30:41.158Z,100605.91
2023-05-05T09:33:10.067Z,100613.19
2023-05-05T09:35:52.404Z,100605.31
2023-05-05T09:38:23.317Z,100602.47
2023-05-05T09:40:53.439Z,100603.47
2023-05-05T09:43:22.957Z,100592.63
2023-05-05T09:45:52.180Z,100588.06
2023-05-05T09:48:27.932Z,100587.47
2023-05-05T09:50:57.098Z,100574.47
2023-05-05T09:53:27.069Z,100571.63
2023-05-05T09:55:56.512Z,100574.66
2023-05-05T09:58:26.438Z,100578.97
2023-05-05T10:00:56.228Z,100572.09
2023-05-05T10:03:25.363Z,100578.44
2023-05-05T10:05:55.936Z,100569.63
2023-05-05T10:08:27.533Z,100573.31
2023-05-05T10:10:57.607Z,100576.91
2023-05-05T10:13:27.260Z,100575.84
2023-05-05T10:15:57.511Z,100581.50
2023-05-05T10:18:27.680Z,100578.47
2023-05-05T10:20:59.189Z,100581.09
2023-05-05T10:23:36.985Z,100584.06
2023-05-05T10:26:09.030Z,100579.84
2023-05-05T10:28:45.954Z,100581.84
2023-05-05T10:31:25.772Z,100574.88
2023-05-05T10:34:00.280Z,100578.28
2023-05-05T10:36:30.391Z,100564.28
2023-05-05T10:39:01.648Z,100569.09
2023-05-05T10:41:31.036Z,100570.00
2023-05-05T10:44:02.173Z,100572.28
2023-05-05T10:46:33.352Z,100575.91
2023-05-05T10:49:13.230Z,100559.00
2023-05-05T10:51:51.150Z,100558.13
2023-05-05T10:54:27.261Z,100562.50
2023-05-05T10:56:56.057Z,100554.16
2023-05-05T10:59:43.917Z,100549.22
2023-05-05T11:02:23.471Z,100548.09
2023-05-05T11:05:17.064Z,100548.13
2023-05-05T11:07:46.494Z,100546.06
2023-05-05T11:10:18.981Z,100546.69
2023-05-05T11:13:22.710Z,100537.63
2023-05-05T11:15:54.271Z,100538.59
2023-05-05T11:18:37.514Z,100538.44
2023-05-05T11:21:16.518Z,100538.81
2023-05-05T11:23:47.191Z,100542.91
2023-05-05T11:26:18.628Z,100533.03
2023-05-05T11:29:02.390Z,100526.25
2023-05-05T11:31:31.991Z,100517.25
2023-05-05T11:34:27.445Z,100514.81
2023-05-05T11:37:01.147Z,100520.00
2023-05-05T11:39:38.488Z,100517.94
2023-05-05T11:42:23.351Z,100511.13
2023-05-05T11:44:52.403Z,100510.47
2023-05-05T11:47:34.052Z,100493.88
2023-05-05T11:50:21.494Z,100488.19
2023-05-05T11:52:50.599Z,100506.06
2023-05-05T11:55:25.977Z,100489.69
2023-05-05T11:57:55.704Z,100489.38
2023-05-05T12:00:34.745Z,100487.88
2023-05-05T12:03:03.249Z,100489.03
2023-05-05T12:05:34.817Z,100479.06
2023-05-05T12:08:07.325Z,100474.78
2023-05-05T12:10:35.977Z,100467.41
2023-05-05T12:13:05.545Z,100481.06
2023-05-05T12:15:35.027Z,100482.31
2023-05-05T12:18:05.461Z,100481.59
2023-05-05T12:20:35.143Z,100480.69
2023-05-05T12:23:04.857Z,100475.72
2023-05-05T12:25:38.265Z,100473.78
2023-05-05T12:28:10.496Z,100463.47
2023-05-05T12:30:39.145Z,100474.00
2023-05-05T12:33:08.626Z,100461.16
2023-05-05T12:35:38.333Z,100467.41
2023-05-05T12:38:06.646Z,100462.31
2023-05-05T12:40:48.378Z,100465.78
2023-05-05T12:43:29.919Z,100476.78
2023-05-05T12:46:06.192Z,100498.50
2023-05-05T12:48:39.123Z,100479.50
2023-05-05T12:51:16.060Z,100465.09
2023-05-05T12:53:44.670Z,100454.69
2023-05-05T12:56:32.863Z,100456.38
2023-05-05T12:59:03.020Z,100455.38
2023-05-05T13:01:32.720Z,100449.56
2023-05-05T13:04:13.611Z,100434.22
2023-05-05T13:06:43.118Z,100438.53
2023-05-05T13:09:23.562Z,100433.34
2023-05-05T13:11:52.589Z,100422.91
2023-05-05T13:14:22.250Z,100423.63
2023-05-05T13:16:53.042Z,100424.81
2023-05-05T13:22:43.217Z,100411.16
2023-05-05T13:25:12.822Z,100407.22
2023-05-05T13:27:40.977Z,100409.22
2023-05-05T13:30:12.391Z,100408.81
2023-05-05T13:32:43.218Z,100405.56
2023-05-05T13:35:14.767Z,100398.44
2023-05-05T13:37:46.006Z,100393.47
2023-05-05T13:40:15.025Z,100394.53
2023-05-05T13:42:43.111Z,100385.47
2023-05-05T13:45:14.209Z,100389.22
2023-05-05T13:47:44.697Z,100386.72
2023-05-05T13:50:13.661Z,100384.00
2023-05-05T13:52:42.425Z,100393.88
2023-05-05T13:55:10.903Z,100393.34
2023-05-05T13:57:39.095Z,100381.81
2023-05-05T14:00:09.158Z,100376.00
2023-05-05T14:02:38.663Z,100383.97
2023-05-05T14:05:07.266Z,100384.41
2023-05-05T14:07:36.006Z,100391.19
2023-05-05T14:10:05.160Z,100383.84
2023-05-05T14:12:33.668Z,100378.91
2023-05-05T14:15:01.968Z,100378.38
2023-05-05T14:17:30.283Z,100379.81
2023-05-05T14:20:01.089Z,100371.66
2023-05-05T14:22:29.245Z,100367.13
2023-05-05T14:24:57.989Z,100363.25
2023-05-05T14:27:26.769Z,100359.78
2023-05-05T14:29:54.862Z,100368.59
2023-05-05T14:32:23.245Z,100366.47
2023-05-05T14:34:52.008Z,100376.75
2023-05-05T14:37:22.902Z,100367.56
2023-05-05T14:39:51.068Z,100365.94
2023-05-05T14:42:19.152Z,100364.41
2023-05-05T14:44:47.772Z,100359.28
2023-05-05T14:47:16.665Z,100363.78
2023-05-05T14:49:44.823Z,100361.09
2023-05-05T14:52:13.301Z,100363.53
2023-05-05T14:54:44.559Z,100370.00
2023-05-05T14:57:12.760Z,100375.66
2023-05-05T14:59:41.112Z,100371.84
2023-05-05T15:02:09.336Z,100372.75
2023-05-05T15:04:38.656Z,100375.06
2023-05-05T15:07:07.007Z,100386.59
2023-05-05T15:09:35.140Z,100380.78
2023-05-05T15:12:05.874Z,100383.13
2023-05-05T15:14:36.414Z,100379.75
2023-05-05T15:17:06.842Z,100378.22
2023-05-05T15:19:36.392Z,100368.13
2023-05-05T15:22:04.825Z,100369.13
2023-05-05T15:24:32.964Z,100375.03
2023-05-05T15:27:01.817Z,100365.28
2023-05-05T15:29:32.267Z,100381.28
2023-05-05T15:32:00.717Z,100373.72
2023-05-05T15:34:29.071Z,100383.03
2023-05-05T15:36:57.365Z,100391.72
2023-05-05T15:39:25.509Z,100401.09
2023-05-05T15:41:53.590Z,100420.09
2023-05-05T15:44:21.736Z,100418.34
2023-05-05T15:46:51.310Z,100420.69
2023-05-05T15:49:19.649Z,100427.38
2023-05-05T15:51:49.266Z,100447.09
2023-05-05T15:54:17.364Z,100443.72
2023-05-05T15:56:45.795Z,100446.47
2023-05-05T15:59:14.882Z,100446.69
2023-05-05T16:01:43.557Z,100449.38
2023-05-05T16:04:13.402Z,100447.19
2023-05-05T16:06:41.798Z,100449.63
2023-05-05T16:09:10.004Z,100454.75
2023-05-05T16:11:38.568Z,100453.03
2023-05-05T16:14:08.262Z,100458.41
2023-05-05T16:16:36.818Z,100466.69
2023-05-05T16:19:05.002Z,100469.50
2023-05-05T16:21:35.750Z,100482.94
2023-05-05T16:24:04.329Z,100478.91
2023-05-05T16:26:32.800Z,100481.13
2023-05-05T16:29:01.352Z,100483.31
2023-05-05T16:31:30.055Z,100478.06
2023-05-05T16:33:58.262Z,100478.16
2023-05-05T16:36:28.420Z,100479.41
2023-05-05T16:38:58.100Z,100481.34
2023-05-05T16:41:27.517Z,100489.63
2023-05-05T16:43:55.667Z,100473.78
2023-05-05T16:46:24.664Z,100466.56
2023-05-05T16:48:53.261Z,100464.00
2023-05-05T16:51:21.462Z,100455.44
2023-05-05T16:53:49.616Z,100452.41
2023-05-05T16:56:19.191Z,100455.44
2023-05-05T16:58:47.568Z,100477.00
2023-05-05T17:01:15.947Z,100477.25
2023-05-05T17:03:44.036Z,100470.97
2023-05-05T17:06:12.958Z,100473.13
2023-05-05T17:08:41.824Z,100468.75
2023-05-05T17:11:11.845Z,100469.28
2023-05-05T17:13:42.204Z,100460.63
2023-05-05T17:16:10.536Z,100471.81
2023-05-05T17:18:39.188Z,100474.13
2023-05-05T17:21:07.714Z,100487.97
2023-05-05T17:23:35.771Z,100480.50
2023-05-05T17:26:05.277Z,100487.16
2023-05-05T17:28:33.659Z,100491.56
2023-05-05T17:31:03.414Z,100485.69
2023-05-05T17:33:31.387Z,100491.00
2023-05-05T17:35:59.909Z,100487.91
2023-05-05T17:38:28.322Z,100488.34
2023-05-05T17:40:57.916Z,100488.03
2023-05-05T17:43:25.850Z,100489.34
2023-05-05T17:45:56.253Z,100492.50
2023-05-05T17:48:27.276Z,100500.31
2023-05-05T17:50:55.905Z,100492.13
2023-05-05T17:53:25.172Z,100489.56
2023-05-05T17:55:53.514Z,100492.13
2023-05-05T17:58:22.713Z,100498.63
2023-05-05T18:00:50.865Z,100495.97
2023-05-05T18:03:20.347Z,100494.03
2023-05-05T18:05:49.891Z,100493.63
2023-05-05T18:08:18.561Z,100497.97
2023-05-05T18:10:47.311Z,100503.09
2023-05-05T18:13:15.561Z,100508.09
2023-05-05T18:15:44.063Z,100502.22
2023-05-05T18:18:12.227Z,100502.41
2023-05-05T18:20:40.986Z,100499.94
2023-05-05T18:23:11.274Z,100508.94
2023-05-05T18:25:39.587Z,100510.22
2023-05-05T18:28:07.840Z,100504.50
2023-05-05T18:30:37.567Z,100503.63
2023-05-05T18:33:05.946Z,100512.31
2023-05-05T18:35:35.687Z,100513.81
2023-05-05T18:38:03.958Z,100517.66
2023-05-05T18:40:33.662Z,100515.19
2023-05-05T18:43:02.184Z,100514.00
2023-05-05T18:45:31.967Z,100517.97
2023-05-05T18:48:01.332Z,100523.88
2023-05-05T18:50:29.910Z,100520.06
2023-05-05T18:52:58.223Z,100535.84
2023-05-05T18:55:29.909Z,100538.38
2023-05-05T18:57:59.496Z,100543.06
2023-05-05T19:00:27.598Z,100535.00
2023-05-05T19:02:55.985Z,100546.63
2023-05-05T19:05:24.667Z,100545.00
2023-05-05T19:07:52.942Z,100547.66
2023-05-05T19:10:21.202Z,100558.53
2023-05-05T19:12:50.488Z,100558.53
2023-05-05T19:15:20.801Z,100559.00
2023-05-05T19:17:49.285Z,100558.13
2023-05-05T19:20:17.738Z,100561.97
2023-05-05T19:22:46.304Z,100561.09
2023-05-05T19:25:14.634Z,100567.88
2023-05-05T19:27:42.986Z,100561.66
2023-05-05T19:30:13.002Z,100560.78
2023-05-05T19:32:42.733Z,100570.38
2023-05-05T19:35:12.796Z,100570.22
2023-05-05T19:37:41.915Z,100574.34
2023-05-05T19:40:11.084Z,100568.59
2023-05-05T19:42:39.807Z,100571.97
2023-05-05T19:45:09.168Z,100581.69
2023-05-05T19:47:38.398Z,100573.31
2023-05-05T19:50:09.467Z,100576.13
2023-05-05T19:52:38.428Z,100574.78
2023-05-05T19:55:10.683Z,100573.75
2023-05-05T19:57:40.465Z,100564.22
2023-05-05T20:00:11.194Z,100570.22
2023-05-05T20:02:39.730Z,100581.41
2023-05-05T20:05:14.313Z,100588.16
2023-05-05T20:07:43.765Z,100585.38
2023-05-05T20:10:14.262Z,100587.28
2023-05-05T20:12:48.372Z,100590.38
2023-05-05T20:15:21.633Z,100587.28
2023-05-05T20:17:49.859Z,100594.06
2023-05-05T20:20:23.655Z,100593.75
2023-05-05T20:22:53.019Z,100586.69
2023-05-05T20:25:21.846Z,100591.69
2023-05-05T20:27:51.066Z,100593.72
2023-05-05T20:30:19.239Z,100589.91
2023-05-05T20:32:47.940Z,100585.19
2023-05-05T20:35:16.275Z,100596.47
2023-05-05T20:37:46.380Z,100600.28
2023-05-05T20:40:15.910Z,100597.91
2023-05-05T20:42:44.311Z,100600.56
2023-05-05T20:45:12.764Z,100600.06
2023-05-05T20:47:41.901Z,100605.94
2023-05-05T20:50:11.710Z,100609.91
2023-05-05T20:52:40.260Z,100610.03
2023-05-05T20:55:10.688Z,100599.28
2023-05-05T20:57:39.305Z,100604.97
2023-05-05T21:00:09.392Z,100611.56
2023-05-05T21:02:38.714Z,100605.97
2023-05-05T21:05:12.573Z,100614.63
2023-05-05T21:07:46.173Z,100605.63
2023-05-05T21:10:18.777Z,100603.09
2023-05-05T21:12:46.853Z,100615.09
2023-05-05T21:15:17.605Z,100614.97
2023-05-05T21:17:48.766Z,100621.38
2023-05-05T21:20:18.698Z,100615.28
2023-05-05T21:22:47.368Z,100617.78
2023-05-05T21:25:19.803Z,100621.56
2023-05-05T21:27:50.379Z,100613.28
2023-05-05T21:30:18.729Z,100616.31
2023-05-05T21:32:48.920Z,100614.25
2023-05-05T21:35:19.752Z,100614.84
2023-05-05T21:37:49.769Z,100625.69
2023-05-05T21:40:20.133Z,100626.66
2023-05-05T21:42:48.561Z,100632.47
2023-05-05T21:45:16.912Z,100626.00
2023-05-05T21:47:45.488Z,100619.53
2023-05-05T21:50:13.988Z,100629.59
2023-05-05T21:52:44.244Z,100623.69
2023-05-05T21:55:14.671Z,100631.69
2023-05-05T21:57:44.611Z,100636.38
2023-05-05T22:00:16.639Z,100627.28
2023-05-05T22:02:45.801Z,100634.34
2023-05-05T22:05:14.378Z,100632.28
2023-05-05T22:07:42.884Z,100624.09
2023-05-05T22:10:13.483Z,100628.34
2023-05-05T22:12:44.734Z,100636.38
2023-05-05T22:15:15.009Z,100635.81
2023-05-05T22:17:48.866Z,100638.59
2023-05-05T22:20:19.003Z,100644.59
2023-05-05T22:22:47.141Z,100644.41
2023-05-05T22:25:15.692Z,100647.41
2023-05-05T22:27:47.424Z,100653.16
2023-05-05T22:30:18.754Z,100652.44
2023-05-05T22:32:49.627Z,100646.69
2023-05-05T22:35:25.691Z,100651.78
2023-05-05T22:37:54.035Z,100652.16
2023-05-05T22:40:22.201Z,100652.16
2023-05-05T22:42:53.430Z,100657.72
2023-05-05T22:45:23.931Z,100655.13
2023-05-05T22:47:53.369Z,100665.53
2023-05-05T22:50:21.615Z,100655.72
2023-05-05T22:52:49.962Z,100649.56
2023-05-05T22:55:21.233Z,100657.00
2023-05-05T22:57:49.862Z,100653.88
2023-05-05T23:00:18.320Z,100661.31
2023-05-05T23:02:47.936Z,100657.63
2023-05-05T23:05:15.967Z,100657.31
2023-05-05T23:07:44.089Z,100659.19
2023-05-05T23:10:12.972Z,100653.28
2023-05-05T23:12:41.338Z,100665.38
2023-05-05T23:15:11.102Z,100663.16
2023-05-05T23:17:43.522Z,100665.03
2023-05-05T23:20:17.442Z,100666.16
2023-05-05T23:22:45.440Z,100668.94
2023-05-05T23:25:16.581Z,100668.94
2023-05-05T23:27:45.299Z,100659.31
2023-05-05T23:30:14.475Z,100658.91
2023-05-05T23:32:46.163Z,100660.59
2023-05-05T23:35:18.729Z,100659.13
2023-05-05T23:37:47.416Z,100663.56
2023-05-05T23:40:18.197Z,100663.03
2023-05-05T23:42:46.650Z,100654.69
2023-05-05T23:45:16.007Z,100654.53
2023-05-05T23:47:47.634Z,100654.53
2023-05-05T23:50:21.485Z,100663.84
2023-05-05T23:52:53.174Z,100653.66
2023-05-05T23:55:22.903Z,100657.25
2023-05-05T23:57:52.358Z,100659.69
